sensor_id;sensor_type;location;lat;lon;timestamp;P1;durP1;ratioP1;P2;durP2;ratioP2
3379;SDS011;1703;51.964;7.642;2023-03-31T00:01:24;8.33;;;1.87;;
3379;SDS011;1703;51.964;7.642;2023-03-31T00:03:51;5.50;;;2.13;;
3379;SDS011;1703;51.964;7.642;2023-03-31T00:06:29;7.20;;;1.90;;
3379;SDS011;1703;51.964;7.642;2023-03-31T00:08:58;4.50;;;1.80;;
3379;SDS011;1703;51.964;7.642;2023-03-31T00:11:26;5.57;;;2.40;;
3379;SDS011;1703;51.964;7.642;2023-03-31T00:13:54;9.87;;;1.70;;
3379;SDS011;1703;51.964;7.642;2023-03-31T00:16:21;7.10;;;2.50;;
3379;SDS011;1703;51.964;7.642;2023-03-31T00:18:47;6.00;;;1.70;;
3379;SDS011;1703;51.964;7.642;2023-03-31T00:21:16;5.67;;;1.90;;
3379;SDS011;1703;51.964;7.642;2023-03-31T00:23:49;5.83;;;1.73;;
3379;SDS011;1703;51.964;7.642;2023-03-31T00:26:18;2.40;;;1.40;;
3379;SDS011;1703;51.964;7.642;2023-03-31T00:28:46;4.13;;;1.60;;
3379;SDS011;1703;51.964;7.642;2023-03-31T00:31:13;7.10;;;1.60;;
3379;SDS011;1703;51.964;7.642;2023-03-31T00:33:39;6.93;;;2.20;;
3379;SDS011;1703;51.964;7.642;2023-03-31T00:36:07;3.33;;;1.30;;
3379;SDS011;1703;51.964;7.642;2023-03-31T00:38:34;5.27;;;1.70;;
3379;SDS011;1703;51.964;7.642;2023-03-31T00:41:01;5.17;;;1.73;;
3379;SDS011;1703;51.964;7.642;2023-03-31T00:43:32;7.40;;;1.83;;
3379;SDS011;1703;51.964;7.642;2023-03-31T00:46:04;2.47;;;1.30;;
3379;SDS011;1703;51.964;7.642;2023-03-31T00:48:40;5.13;;;1.67;;
3379;SDS011;1703;51.964;7.642;2023-03-31T00:51:12;4.70;;;2.53;;
3379;SDS011;1703;51.964;7.642;2023-03-31T00:53:40;4.70;;;2.23;;
3379;SDS011;1703;51.964;7.642;2023-03-31T00:56:08;5.50;;;2.23;;
3379;SDS011;1703;51.964;7.642;2023-03-31T00:58:40;3.47;;;2.27;;
3379;SDS011;1703;51.964;7.642;2023-03-31T01:01:11;3.43;;;1.90;;
3379;SDS011;1703;51.964;7.642;2023-03-31T01:03:41;8.27;;;2.97;;
3379;SDS011;1703;51.964;7.642;2023-03-31T01:06:09;6.07;;;2.30;;
3379;SDS011;1703;51.964;7.642;2023-03-31T01:08:38;8.23;;;2.80;;
3379;SDS011;1703;51.964;7.642;2023-03-31T01:11:08;8.93;;;2.47;;
3379;SDS011;1703;51.964;7.642;2023-03-31T01:13:37;6.30;;;2.20;;
3379;SDS011;1703;51.964;7.642;2023-03-31T01:16:07;7.27;;;2.27;;
3379;SDS011;1703;51.964;7.642;2023-03-31T01:18:34;9.80;;;2.27;;
3379;SDS011;1703;51.964;7.642;2023-03-31T01:21:17;4.77;;;1.93;;
3379;SDS011;1703;51.964;7.642;2023-03-31T01:30:34;6.40;;;2.00;;
3379;SDS011;1703;51.964;7.642;2023-03-31T01:36:37;5.00;;;1.57;;
3379;SDS011;1703;51.964;7.642;2023-03-31T01:42:28;4.43;;;2.00;;
3379;SDS011;1703;51.964;7.642;2023-03-31T01:45:01;3.07;;;1.97;;
3379;SDS011;1703;51.964;7.642;2023-03-31T01:47:37;5.60;;;1.20;;
3379;SDS011;1703;51.964;7.642;2023-03-31T01:50:10;8.20;;;2.20;;
3379;SDS011;1703;51.964;7.642;2023-03-31T01:52:48;4.00;;;1.80;;
3379;SDS011;1703;51.964;7.642;2023-03-31T01:55:25;3.17;;;1.30;;
3379;SDS011;1703;51.964;7.642;2023-03-31T01:57:57;6.00;;;1.57;;
3379;SDS011;1703;51.964;7.642;2023-03-31T02:00:31;4.77;;;1.63;;
3379;SDS011;1703;51.964;7.642;2023-03-31T02:03:04;9.73;;;1.10;;
3379;SDS011;1703;51.964;7.642;2023-03-31T02:05:36;7.03;;;2.57;;
3379;SDS011;1703;51.964;7.642;2023-03-31T02:08:09;2.93;;;1.60;;
3379;SDS011;1703;51.964;7.642;2023-03-31T02:10:41;12.10;;;1.73;;
3379;SDS011;1703;51.964;7.642;2023-03-31T02:13:10;5.30;;;2.03;;
3379;SDS011;1703;51.964;7.642;2023-03-31T02:15:41;14.67;;;1.70;;
3379;SDS011;1703;51.964;7.642;2023-03-31T02:18:11;8.37;;;2.27;;
3379;SDS011;1703;51.964;7.642;2023-03-31T02:20:43;7.03;;;1.97;;
3379;SDS011;1703;51.964;7.642;2023-03-31T02:23:14;6.73;;;2.20;;
3379;SDS011;1703;51.964;7.642;2023-03-31T02:25:46;5.83;;;1.53;;
3379;SDS011;1703;51.964;7.642;2023-03-31T02:28:17;6.23;;;2.07;;
3379;SDS011;1703;51.964;7.642;2023-03-31T02:30:48;5.63;;;1.80;;
3379;SDS011;1703;51.964;7.642;2023-03-31T02:33:21;6.93;;;2.03;;
3379;SDS011;1703;51.964;7.642;2023-03-31T02:35:48;4.63;;;1.60;;
3379;SDS011;1703;51.964;7.642;2023-03-31T02:38:15;2.80;;;1.70;;
3379;SDS011;1703;51.964;7.642;2023-03-31T02:40:42;5.27;;;1.67;;
3379;SDS011;1703;51.964;7.642;2023-03-31T02:43:11;5.40;;;1.57;;
3379;SDS011;1703;51.964;7.642;2023-03-31T02:45:39;4.43;;;1.43;;
3379;SDS011;1703;51.964;7.642;2023-03-31T02:48:09;4.60;;;1.60;;
3379;SDS011;1703;51.964;7.642;2023-03-31T02:50:42;12.93;;;2.47;;
3379;SDS011;1703;51.964;7.642;2023-03-31T02:53:28;4.53;;;1.80;;
3379;SDS011;1703;51.964;7.642;2023-03-31T02:56:08;5.97;;;1.70;;
3379;SDS011;1703;51.964;7.642;2023-03-31T02:58:58;7.57;;;2.20;;
3379;SDS011;1703;51.964;7.642;2023-03-31T03:01:39;4.80;;;1.60;;
3379;SDS011;1703;51.964;7.642;2023-03-31T03:04:20;3.60;;;1.80;;
3379;SDS011;1703;51.964;7.642;2023-03-31T03:07:02;5.00;;;1.73;;
3379;SDS011;1703;51.964;7.642;2023-03-31T03:09:35;4.07;;;1.43;;
3379;SDS011;1703;51.964;7.642;2023-03-31T03:12:12;3.50;;;1.37;;
3379;SDS011;1703;51.964;7.642;2023-03-31T03:14:49;6.23;;;2.00;;
3379;SDS011;1703;51.964;7.642;2023-03-31T03:17:20;2.90;;;1.50;;
3379;SDS011;1703;51.964;7.642;2023-03-31T03:19:51;5.10;;;2.27;;
3379;SDS011;1703;51.964;7.642;2023-03-31T03:22:20;8.13;;;2.37;;
3379;SDS011;1703;51.964;7.642;2023-03-31T03:24:46;4.10;;;1.57;;
3379;SDS011;1703;51.964;7.642;2023-03-31T03:27:13;5.30;;;2.10;;
3379;SDS011;1703;51.964;7.642;2023-03-31T03:29:41;4.63;;;1.87;;
3379;SDS011;1703;51.964;7.642;2023-03-31T03:32:09;7.60;;;2.60;;
3379;SDS011;1703;51.964;7.642;2023-03-31T03:34:36;9.57;;;2.70;;
3379;SDS011;1703;51.964;7.642;2023-03-31T03:37:03;6.17;;;2.10;;
3379;SDS011;1703;51.964;7.642;2023-03-31T03:39:31;4.60;;;1.83;;
3379;SDS011;1703;51.964;7.642;2023-03-31T03:41:58;3.87;;;2.10;;
3379;SDS011;1703;51.964;7.642;2023-03-31T03:44:24;5.10;;;2.50;;
3379;SDS011;1703;51.964;7.642;2023-03-31T03:46:51;7.77;;;2.37;;
3379;SDS011;1703;51.964;7.642;2023-03-31T03:49:19;5.17;;;2.33;;
3379;SDS011;1703;51.964;7.642;2023-03-31T03:51:46;3.83;;;2.20;;
3379;SDS011;1703;51.964;7.642;2023-03-31T03:54:13;7.50;;;2.27;;
3379;SDS011;1703;51.964;7.642;2023-03-31T03:56:40;9.57;;;3.63;;
3379;SDS011;1703;51.964;7.642;2023-03-31T03:59:06;11.23;;;3.03;;
3379;SDS011;1703;51.964;7.642;2023-03-31T04:01:33;6.70;;;2.80;;
3379;SDS011;1703;51.964;7.642;2023-03-31T04:04:01;14.30;;;3.60;;
3379;SDS011;1703;51.964;7.642;2023-03-31T04:06:29;5.90;;;3.20;;
3379;SDS011;1703;51.964;7.642;2023-03-31T04:08:56;7.97;;;3.93;;
3379;SDS011;1703;51.964;7.642;2023-03-31T04:11:23;10.17;;;3.80;;
3379;SDS011;1703;51.964;7.642;2023-03-31T04:13:50;6.07;;;3.23;;
3379;SDS011;1703;51.964;7.642;2023-03-31T04:16:17;8.40;;;3.37;;
3379;SDS011;1703;51.964;7.642;2023-03-31T04:18:44;10.87;;;4.13;;
3379;SDS011;1703;51.964;7.642;2023-03-31T04:21:13;18.83;;;3.93;;
3379;SDS011;1703;51.964;7.642;2023-03-31T04:23:48;8.63;;;3.57;;
3379;SDS011;1703;51.964;7.642;2023-03-31T04:26:23;5.47;;;3.50;;
3379;SDS011;1703;51.964;7.642;2023-03-31T04:28:55;8.17;;;3.73;;
3379;SDS011;1703;51.964;7.642;2023-03-31T04:31:24;8.03;;;3.53;;
3379;SDS011;1703;51.964;7.642;2023-03-31T04:33:51;7.40;;;3.83;;
3379;SDS011;1703;51.964;7.642;2023-03-31T04:36:18;7.10;;;3.10;;
3379;SDS011;1703;51.964;7.642;2023-03-31T04:38:46;13.30;;;3.33;;
3379;SDS011;1703;51.964;7.642;2023-03-31T04:41:18;8.97;;;4.30;;
3379;SDS011;1703;51.964;7.642;2023-03-31T04:43:45;10.00;;;4.00;;
3379;SDS011;1703;51.964;7.642;2023-03-31T04:46:12;12.63;;;4.93;;
3379;SDS011;1703;51.964;7.642;2023-03-31T04:48:39;9.37;;;3.80;;
3379;SDS011;1703;51.964;7.642;2023-03-31T04:51:06;12.03;;;3.67;;
3379;SDS011;1703;51.964;7.642;2023-03-31T04:53:34;18.53;;;4.97;;
3379;SDS011;1703;51.964;7.642;2023-03-31T04:56:03;8.73;;;3.40;;
3379;SDS011;1703;51.964;7.642;2023-03-31T04:58:31;8.67;;;3.70;;
3379;SDS011;1703;51.964;7.642;2023-03-31T05:00:58;12.47;;;3.27;;
3379;SDS011;1703;51.964;7.642;2023-03-31T05:03:25;5.47;;;3.77;;
3379;SDS011;1703;51.964;7.642;2023-03-31T05:05:52;14.33;;;3.67;;
3379;SDS011;1703;51.964;7.642;2023-03-31T05:08:19;13.67;;;4.03;;
3379;SDS011;1703;51.964;7.642;2023-03-31T05:10:46;15.10;;;3.90;;
3379;SDS011;1703;51.964;7.642;2023-03-31T05:13:14;10.27;;;4.00;;
3379;SDS011;1703;51.964;7.642;2023-03-31T05:15:41;9.00;;;4.00;;
3379;SDS011;1703;51.964;7.642;2023-03-31T05:18:09;7.33;;;3.07;;
3379;SDS011;1703;51.964;7.642;2023-03-31T05:20:36;11.43;;;3.37;;
3379;SDS011;1703;51.964;7.642;2023-03-31T05:23:03;5.37;;;3.33;;
3379;SDS011;1703;51.964;7.642;2023-03-31T05:25:31;6.43;;;3.60;;
3379;SDS011;1703;51.964;7.642;2023-03-31T05:27:57;7.60;;;3.50;;
3379;SDS011;1703;51.964;7.642;2023-03-31T05:30:26;12.70;;;3.37;;
3379;SDS011;1703;51.964;7.642;2023-03-31T05:32:53;11.87;;;4.07;;
3379;SDS011;1703;51.964;7.642;2023-03-31T05:35:21;4.23;;;2.90;;
3379;SDS011;1703;51.964;7.642;2023-03-31T05:37:48;11.40;;;3.83;;
3379;SDS011;1703;51.964;7.642;2023-03-31T05:40:15;11.13;;;3.17;;
3379;SDS011;1703;51.964;7.642;2023-03-31T05:42:41;5.47;;;3.83;;
3379;SDS011;1703;51.964;7.642;2023-03-31T05:45:08;10.20;;;3.47;;
3379;SDS011;1703;51.964;7.642;2023-03-31T05:47:37;6.10;;;2.80;;
3379;SDS011;1703;51.964;7.642;2023-03-31T05:50:05;10.33;;;2.93;;
3379;SDS011;1703;51.964;7.642;2023-03-31T05:52:33;7.00;;;3.00;;
3379;SDS011;1703;51.964;7.642;2023-03-31T05:55:00;8.33;;;3.03;;
3379;SDS011;1703;51.964;7.642;2023-03-31T05:57:28;12.23;;;3.00;;
3379;SDS011;1703;51.964;7.642;2023-03-31T05:59:55;7.40;;;2.80;;
3379;SDS011;1703;51.964;7.642;2023-03-31T06:02:22;7.53;;;3.17;;
3379;SDS011;1703;51.964;7.642;2023-03-31T06:04:50;12.57;;;2.77;;
3379;SDS011;1703;51.964;7.642;2023-03-31T06:07:17;8.43;;;2.50;;
3379;SDS011;1703;51.964;7.642;2023-03-31T06:09:44;7.50;;;2.20;;
3379;SDS011;1703;51.964;7.642;2023-03-31T06:12:11;4.50;;;2.87;;
3379;SDS011;1703;51.964;7.642;2023-03-31T06:14:38;6.37;;;2.57;;
3379;SDS011;1703;51.964;7.642;2023-03-31T06:17:04;8.07;;;1.97;;
3379;SDS011;1703;51.964;7.642;2023-03-31T06:19:31;3.93;;;1.67;;
3379;SDS011;1703;51.964;7.642;2023-03-31T06:21:59;4.50;;;1.87;;
3379;SDS011;1703;51.964;7.642;2023-03-31T06:24:26;9.47;;;2.37;;
3379;SDS011;1703;51.964;7.642;2023-03-31T06:26:53;5.30;;;2.03;;
3379;SDS011;1703;51.964;7.642;2023-03-31T06:29:20;7.43;;;1.90;;
3379;SDS011;1703;51.964;7.642;2023-03-31T06:31:47;5.37;;;1.70;;
3379;SDS011;1703;51.964;7.642;2023-03-31T06:34:13;12.93;;;2.00;;
3379;SDS011;1703;51.964;7.642;2023-03-31T06:36:40;9.50;;;2.10;;
3379;SDS011;1703;51.964;7.642;2023-03-31T06:39:08;3.40;;;2.03;;
3379;SDS011;1703;51.964;7.642;2023-03-31T06:41:35;7.03;;;2.40;;
3379;SDS011;1703;51.964;7.642;2023-03-31T06:44:02;8.40;;;2.30;;
3379;SDS011;1703;51.964;7.642;2023-03-31T06:46:29;3.50;;;1.93;;
3379;SDS011;1703;51.964;7.642;2023-03-31T06:48:56;6.10;;;1.90;;
3379;SDS011;1703;51.964;7.642;2023-03-31T06:51:23;3.00;;;1.20;;
3379;SDS011;1703;51.964;7.642;2023-03-31T06:53:50;4.83;;;1.83;;
3379;SDS011;1703;51.964;7.642;2023-03-31T06:56:18;4.63;;;1.50;;
3379;SDS011;1703;51.964;7.642;2023-03-31T06:58:46;2.80;;;1.27;;
3379;SDS011;1703;51.964;7.642;2023-03-31T07:01:12;8.67;;;2.33;;
3379;SDS011;1703;51.964;7.642;2023-03-31T07:03:39;5.50;;;1.40;;
3379;SDS011;1703;51.964;7.642;2023-03-31T07:06:06;5.40;;;2.13;;
3379;SDS011;1703;51.964;7.642;2023-03-31T07:08:33;3.13;;;1.80;;
3379;SDS011;1703;51.964;7.642;2023-03-31T07:11:00;4.43;;;1.50;;
3379;SDS011;1703;51.964;7.642;2023-03-31T07:13:29;4.80;;;1.50;;
3379;SDS011;1703;51.964;7.642;2023-03-31T07:15:56;1.47;;;1.23;;
3379;SDS011;1703;51.964;7.642;2023-03-31T07:18:22;2.60;;;1.10;;
3379;SDS011;1703;51.964;7.642;2023-03-31T07:20:56;9.77;;;1.73;;
3379;SDS011;1703;51.964;7.642;2023-03-31T07:23:23;4.13;;;1.47;;
3379;SDS011;1703;51.964;7.642;2023-03-31T07:25:50;4.93;;;2.10;;
3379;SDS011;1703;51.964;7.642;2023-03-31T07:28:17;4.47;;;1.67;;
3379;SDS011;1703;51.964;7.642;2023-03-31T07:30:45;5.20;;;1.87;;
3379;SDS011;1703;51.964;7.642;2023-03-31T07:33:12;6.10;;;1.97;;
3379;SDS011;1703;51.964;7.642;2023-03-31T07:35:48;11.23;;;1.27;;
3379;SDS011;1703;51.964;7.642;2023-03-31T07:38:16;5.70;;;1.47;;
3379;SDS011;1703;51.964;7.642;2023-03-31T07:40:43;7.40;;;1.90;;
3379;SDS011;1703;51.964;7.642;2023-03-31T07:43:10;1.80;;;1.40;;
3379;SDS011;1703;51.964;7.642;2023-03-31T07:45:37;4.13;;;1.60;;
3379;SDS011;1703;51.964;7.642;2023-03-31T07:48:06;3.43;;;1.40;;
3379;SDS011;1703;51.964;7.642;2023-03-31T07:50:33;5.33;;;1.70;;
3379;SDS011;1703;51.964;7.642;2023-03-31T07:53:03;1.57;;;1.43;;
3379;SDS011;1703;51.964;7.642;2023-03-31T07:55:30;3.47;;;1.47;;
3379;SDS011;1703;51.964;7.642;2023-03-31T07:57:56;9.10;;;1.57;;
3379;SDS011;1703;51.964;7.642;2023-03-31T08:00:24;4.00;;;1.53;;
3379;SDS011;1703;51.964;7.642;2023-03-31T08:02:51;4.67;;;2.07;;
3379;SDS011;1703;51.964;7.642;2023-03-31T08:05:19;4.47;;;1.93;;
3379;SDS011;1703;51.964;7.642;2023-03-31T08:07:46;5.80;;;1.73;;
3379;SDS011;1703;51.964;7.642;2023-03-31T08:10:15;3.20;;;1.70;;
3379;SDS011;1703;51.964;7.642;2023-03-31T08:12:44;3.73;;;1.30;;
3379;SDS011;1703;51.964;7.642;2023-03-31T08:15:11;3.83;;;1.80;;
3379;SDS011;1703;51.964;7.642;2023-03-31T08:17:38;3.03;;;1.60;;
3379;SDS011;1703;51.964;7.642;2023-03-31T08:20:05;3.13;;;1.47;;
3379;SDS011;1703;51.964;7.642;2023-03-31T08:22:35;4.30;;;1.57;;
3379;SDS011;1703;51.964;7.642;2023-03-31T08:25:03;2.50;;;1.53;;
3379;SDS011;1703;51.964;7.642;2023-03-31T08:27:31;3.57;;;1.70;;
3379;SDS011;1703;51.964;7.642;2023-03-31T08:29:58;7.40;;;1.67;;
3379;SDS011;1703;51.964;7.642;2023-03-31T08:32:28;2.80;;;1.20;;
3379;SDS011;1703;51.964;7.642;2023-03-31T08:34:56;4.17;;;1.60;;
3379;SDS011;1703;51.964;7.642;2023-03-31T08:37:22;3.10;;;1.57;;
3379;SDS011;1703;51.964;7.642;2023-03-31T08:39:51;5.23;;;1.47;;
3379;SDS011;1703;51.964;7.642;2023-03-31T08:42:19;5.60;;;1.53;;
3379;SDS011;1703;51.964;7.642;2023-03-31T08:44:53;3.43;;;3.10;;
3379;SDS011;1703;51.964;7.642;2023-03-31T08:47:25;2.50;;;1.50;;
3379;SDS011;1703;51.964;7.642;2023-03-31T08:49:55;4.00;;;1.43;;
3379;SDS011;1703;51.964;7.642;2023-03-31T08:52:26;4.20;;;1.97;;
3379;SDS011;1703;51.964;7.642;2023-03-31T08:54:58;3.83;;;1.70;;
3379;SDS011;1703;51.964;7.642;2023-03-31T08:57:30;3.20;;;1.43;;
3379;SDS011;1703;51.964;7.642;2023-03-31T09:00:01;10.40;;;2.50;;
3379;SDS011;1703;51.964;7.642;2023-03-31T09:02:32;7.53;;;1.60;;
3379;SDS011;1703;51.964;7.642;2023-03-31T09:05:07;3.13;;;1.87;;
3379;SDS011;1703;51.964;7.642;2023-03-31T09:08:12;2.43;;;1.43;;
3379;SDS011;1703;51.964;7.642;2023-03-31T09:10:49;5.47;;;2.57;;
3379;SDS011;1703;51.964;7.642;2023-03-31T09:13:23;3.90;;;1.50;;
3379;SDS011;1703;51.964;7.642;2023-03-31T09:16:07;3.83;;;1.50;;
3379;SDS011;1703;51.964;7.642;2023-03-31T09:18:39;3.00;;;1.80;;
3379;SDS011;1703;51.964;7.642;2023-03-31T09:21:11;4.20;;;1.67;;
3379;SDS011;1703;51.964;7.642;2023-03-31T09:23:45;5.47;;;1.60;;
3379;SDS011;1703;51.964;7.642;2023-03-31T09:26:21;2.70;;;1.50;;
3379;SDS011;1703;51.964;7.642;2023-03-31T09:28:53;5.67;;;1.97;;
3379;SDS011;1703;51.964;7.642;2023-03-31T09:31:22;1.20;;;1.07;;
3379;SDS011;1703;51.964;7.642;2023-03-31T09:33:52;7.23;;;1.80;;
3379;SDS011;1703;51.964;7.642;2023-03-31T09:36:22;6.83;;;1.63;;
3379;SDS011;1703;51.964;7.642;2023-03-31T09:38:50;5.23;;;2.20;;
3379;SDS011;1703;51.964;7.642;2023-03-31T09:41:17;2.77;;;1.10;;
3379;SDS011;1703;51.964;7.642;2023-03-31T09:43:46;5.40;;;1.53;;
3379;SDS011;1703;51.964;7.642;2023-03-31T09:46:18;2.87;;;1.60;;
3379;SDS011;1703;51.964;7.642;2023-03-31T09:48:57;3.77;;;1.53;;
3379;SDS011;1703;51.964;7.642;2023-03-31T09:51:29;8.93;;;1.73;;
3379;SDS011;1703;51.964;7.642;2023-03-31T09:54:01;3.20;;;1.67;;
3379;SDS011;1703;51.964;7.642;2023-03-31T09:56:43;4.40;;;2.00;;
3379;SDS011;1703;51.964;7.642;2023-03-31T09:59:14;5.70;;;1.37;;
3379;SDS011;1703;51.964;7.642;2023-03-31T10:01:43;6.13;;;1.70;;
3379;SDS011;1703;51.964;7.642;2023-03-31T10:04:20;8.03;;;1.60;;
3379;SDS011;1703;51.964;7.642;2023-03-31T10:06:49;2.63;;;1.73;;
3379;SDS011;1703;51.964;7.642;2023-03-31T10:09:17;9.63;;;2.03;;
3379;SDS011;1703;51.964;7.642;2023-03-31T10:11:51;3.80;;;1.97;;
3379;SDS011;1703;51.964;7.642;2023-03-31T10:14:31;7.80;;;2.50;;
3379;SDS011;1703;51.964;7.642;2023-03-31T10:17:03;5.20;;;1.60;;
3379;SDS011;1703;51.964;7.642;2023-03-31T10:19:32;6.63;;;1.67;;
3379;SDS011;1703;51.964;7.642;2023-03-31T10:22:01;2.93;;;1.47;;
3379;SDS011;1703;51.964;7.642;2023-03-31T10:24:37;3.50;;;1.60;;
3379;SDS011;1703;51.964;7.642;2023-03-31T10:27:05;4.83;;;1.80;;
3379;SDS011;1703;51.964;7.642;2023-03-31T10:29:41;6.33;;;4.10;;
3379;SDS011;1703;51.964;7.642;2023-03-31T10:32:08;11.80;;;2.63;;
3379;SDS011;1703;51.964;7.642;2023-03-31T10:34:41;4.47;;;2.27;;
3379;SDS011;1703;51.964;7.642;2023-03-31T10:37:09;1.80;;;1.63;;
3379;SDS011;1703;51.964;7.642;2023-03-31T10:39:41;5.47;;;2.47;;
3379;SDS011;1703;51.964;7.642;2023-03-31T10:42:10;5.03;;;2.00;;
3379;SDS011;1703;51.964;7.642;2023-03-31T10:44:45;5.67;;;2.10;;
3379;SDS011;1703;51.964;7.642;2023-03-31T10:47:17;6.17;;;1.60;;
3379;SDS011;1703;51.964;7.642;2023-03-31T10:49:47;7.53;;;3.10;;
3379;SDS011;1703;51.964;7.642;2023-03-31T10:52:17;6.97;;;2.53;;
3379;SDS011;1703;51.964;7.642;2023-03-31T10:54:46;3.30;;;1.90;;
3379;SDS011;1703;51.964;7.642;2023-03-31T10:57:14;4.10;;;2.20;;
3379;SDS011;1703;51.964;7.642;2023-03-31T10:59:50;8.33;;;2.50;;
3379;SDS011;1703;51.964;7.642;2023-03-31T11:02:52;5.63;;;2.33;;
3379;SDS011;1703;51.964;7.642;2023-03-31T11:05:39;3.60;;;2.33;;
3379;SDS011;1703;51.964;7.642;2023-03-31T11:08:17;4.70;;;1.80;;
3379;SDS011;1703;51.964;7.642;2023-03-31T11:10:57;6.43;;;2.83;;
3379;SDS011;1703;51.964;7.642;2023-03-31T11:13:43;12.03;;;1.97;;
3379;SDS011;1703;51.964;7.642;2023-03-31T11:16:19;5.67;;;2.37;;
3379;SDS011;1703;51.964;7.642;2023-03-31T11:18:56;8.83;;;2.70;;
3379;SDS011;1703;51.964;7.642;2023-03-31T11:21:36;3.30;;;2.43;;
3379;SDS011;1703;51.964;7.642;2023-03-31T11:24:16;4.13;;;2.10;;
3379;SDS011;1703;51.964;7.642;2023-03-31T11:26:58;10.17;;;3.07;;
3379;SDS011;1703;51.964;7.642;2023-03-31T11:29:34;7.60;;;2.10;;
3379;SDS011;1703;51.964;7.642;2023-03-31T11:32:13;3.93;;;1.90;;
3379;SDS011;1703;51.964;7.642;2023-03-31T11:34:56;3.30;;;1.90;;
3379;SDS011;1703;51.964;7.642;2023-03-31T11:37:35;4.13;;;1.80;;
3379;SDS011;1703;51.964;7.642;2023-03-31T11:40:25;7.20;;;2.10;;
3379;SDS011;1703;51.964;7.642;2023-03-31T11:43:02;6.80;;;1.93;;
3379;SDS011;1703;51.964;7.642;2023-03-31T11:45:32;17.17;;;2.63;;
3379;SDS011;1703;51.964;7.642;2023-03-31T11:48:05;3.80;;;2.17;;
3379;SDS011;1703;51.964;7.642;2023-03-31T11:50:36;7.70;;;2.30;;
3379;SDS011;1703;51.964;7.642;2023-03-31T11:53:06;5.00;;;2.50;;
3379;SDS011;1703;51.964;7.642;2023-03-31T11:55:41;7.63;;;2.50;;
3379;SDS011;1703;51.964;7.642;2023-03-31T11:58:11;5.40;;;2.53;;
3379;SDS011;1703;51.964;7.642;2023-03-31T12:00:43;9.03;;;3.27;;
3379;SDS011;1703;51.964;7.642;2023-03-31T12:03:20;3.97;;;1.97;;
3379;SDS011;1703;51.964;7.642;2023-03-31T12:05:50;6.03;;;2.93;;
3379;SDS011;1703;51.964;7.642;2023-03-31T12:08:22;7.30;;;2.63;;
3379;SDS011;1703;51.964;7.642;2023-03-31T12:10:58;4.37;;;1.87;;
3379;SDS011;1703;51.964;7.642;2023-03-31T12:13:31;4.27;;;2.70;;
3379;SDS011;1703;51.964;7.642;2023-03-31T12:16:04;7.60;;;2.53;;
3379;SDS011;1703;51.964;7.642;2023-03-31T12:18:37;14.47;;;3.53;;
3379;SDS011;1703;51.964;7.642;2023-03-31T12:21:10;9.00;;;4.03;;
3379;SDS011;1703;51.964;7.642;2023-03-31T12:23:38;12.83;;;2.90;;
3379;SDS011;1703;51.964;7.642;2023-03-31T12:26:11;8.80;;;3.10;;
3379;SDS011;1703;51.964;7.642;2023-03-31T12:28:47;10.43;;;2.53;;
3379;SDS011;1703;51.964;7.642;2023-03-31T12:31:19;10.40;;;2.47;;
3379;SDS011;1703;51.964;7.642;2023-03-31T12:33:52;5.20;;;2.03;;
3379;SDS011;1703;51.964;7.642;2023-03-31T12:36:26;5.00;;;1.60;;
3379;SDS011;1703;51.964;7.642;2023-03-31T12:39:02;3.20;;;1.30;;
3379;SDS011;1703;51.964;7.642;2023-03-31T12:41:39;7.23;;;1.40;;
3379;SDS011;1703;51.964;7.642;2023-03-31T12:44:15;4.40;;;1.20;;
3379;SDS011;1703;51.964;7.642;2023-03-31T12:47:06;4.20;;;1.43;;
3379;SDS011;1703;51.964;7.642;2023-03-31T12:49:56;11.10;;;2.87;;
3379;SDS011;1703;51.964;7.642;2023-03-31T12:52:36;5.00;;;1.37;;
3379;SDS011;1703;51.964;7.642;2023-03-31T13:01:05;11.60;;;2.17;;
3379;SDS011;1703;51.964;7.642;2023-03-31T13:03:42;15.27;;;3.07;;
3379;SDS011;1703;51.964;7.642;2023-03-31T13:12:22;9.90;;;2.10;;
3379;SDS011;1703;51.964;7.642;2023-03-31T13:14:52;4.67;;;2.27;;
3379;SDS011;1703;51.964;7.642;2023-03-31T13:17:27;6.30;;;1.97;;
3379;SDS011;1703;51.964;7.642;2023-03-31T13:22:44;14.57;;;2.10;;
3379;SDS011;1703;51.964;7.642;2023-03-31T13:25:25;3.37;;;1.57;;
3379;SDS011;1703;51.964;7.642;2023-03-31T13:28:09;4.57;;;1.43;;
3379;SDS011;1703;51.964;7.642;2023-03-31T13:30:50;6.13;;;1.83;;
3379;SDS011;1703;51.964;7.642;2023-03-31T13:33:22;13.67;;;1.93;;
3379;SDS011;1703;51.964;7.642;2023-03-31T13:39:24;3.53;;;1.63;;
3379;SDS011;1703;51.964;7.642;2023-03-31T13:42:00;7.83;;;2.30;;
3379;SDS011;1703;51.964;7.642;2023-03-31T13:44:37;5.33;;;1.97;;
3379;SDS011;1703;51.964;7.642;2023-03-31T13:47:28;7.53;;;1.80;;
3379;SDS011;1703;51.964;7.642;2023-03-31T13:50:23;8.03;;;2.30;;
3379;SDS011;1703;51.964;7.642;2023-03-31T13:53:02;9.40;;;2.30;;
3379;SDS011;1703;51.964;7.642;2023-03-31T13:58:49;9.67;;;2.67;;
3379;SDS011;1703;51.964;7.642;2023-03-31T14:01:41;7.50;;;2.30;;
3379;SDS011;1703;51.964;7.642;2023-03-31T14:04:29;5.67;;;2.20;;
3379;SDS011;1703;51.964;7.642;2023-03-31T14:07:11;8.00;;;2.03;;
3379;SDS011;1703;51.964;7.642;2023-03-31T14:09:41;9.67;;;2.80;;
3379;SDS011;1703;51.964;7.642;2023-03-31T14:12:31;10.70;;;2.70;;
3379;SDS011;1703;51.964;7.642;2023-03-31T14:14:59;6.60;;;1.90;;
3379;SDS011;1703;51.964;7.642;2023-03-31T14:17:28;12.27;;;2.10;;
3379;SDS011;1703;51.964;7.642;2023-03-31T14:20:03;7.40;;;2.53;;
3379;SDS011;1703;51.964;7.642;2023-03-31T14:22:50;11.37;;;3.63;;
3379;SDS011;1703;51.964;7.642;2023-03-31T14:25:26;6.43;;;2.30;;
3379;SDS011;1703;51.964;7.642;2023-03-31T14:28:09;18.23;;;2.60;;
3379;SDS011;1703;51.964;7.642;2023-03-31T14:30:47;3.87;;;1.50;;
3379;SDS011;1703;51.964;7.642;2023-03-31T14:33:26;12.60;;;2.23;;
3379;SDS011;1703;51.964;7.642;2023-03-31T14:36:04;9.53;;;2.20;;
3379;SDS011;1703;51.964;7.642;2023-03-31T14:38:37;12.60;;;2.47;;
3379;SDS011;1703;51.964;7.642;2023-03-31T14:41:04;6.03;;;2.63;;
3379;SDS011;1703;51.964;7.642;2023-03-31T14:43:34;6.37;;;2.00;;
3379;SDS011;1703;51.964;7.642;2023-03-31T14:46:07;5.57;;;1.90;;
3379;SDS011;1703;51.964;7.642;2023-03-31T14:48:37;8.43;;;2.43;;
3379;SDS011;1703;51.964;7.642;2023-03-31T14:51:09;7.27;;;2.20;;
3379;SDS011;1703;51.964;7.642;2023-03-31T14:53:39;6.90;;;2.30;;
3379;SDS011;1703;51.964;7.642;2023-03-31T14:56:08;4.93;;;1.90;;
3379;SDS011;1703;51.964;7.642;2023-03-31T14:58:39;9.07;;;2.77;;
3379;SDS011;1703;51.964;7.642;2023-03-31T15:01:08;5.57;;;2.57;;
3379;SDS011;1703;51.964;7.642;2023-03-31T15:03:42;10.17;;;2.13;;
3379;SDS011;1703;51.964;7.642;2023-03-31T15:06:12;7.40;;;2.70;;
3379;SDS011;1703;51.964;7.642;2023-03-31T15:08:43;10.83;;;2.43;;
3379;SDS011;1703;51.964;7.642;2023-03-31T15:11:12;5.60;;;1.60;;
3379;SDS011;1703;51.964;7.642;2023-03-31T15:13:43;10.13;;;3.30;;
3379;SDS011;1703;51.964;7.642;2023-03-31T15:16:18;14.47;;;3.57;;
3379;SDS011;1703;51.964;7.642;2023-03-31T15:18:46;10.10;;;2.93;;
3379;SDS011;1703;51.964;7.642;2023-03-31T15:21:18;10.90;;;2.60;;
3379;SDS011;1703;51.964;7.642;2023-03-31T15:23:46;9.97;;;3.03;;
3379;SDS011;1703;51.964;7.642;2023-03-31T15:26:16;10.37;;;4.50;;
3379;SDS011;1703;51.964;7.642;2023-03-31T15:28:48;13.50;;;2.97;;
3379;SDS011;1703;51.964;7.642;2023-03-31T15:31:17;12.03;;;2.87;;
3379;SDS011;1703;51.964;7.642;2023-03-31T15:33:44;10.03;;;3.20;;
3379;SDS011;1703;51.964;7.642;2023-03-31T15:36:12;8.50;;;2.47;;
3379;SDS011;1703;51.964;7.642;2023-03-31T15:38:40;11.47;;;2.67;;
3379;SDS011;1703;51.964;7.642;2023-03-31T15:41:10;12.13;;;2.97;;
3379;SDS011;1703;51.964;7.642;2023-03-31T15:43:41;8.67;;;1.90;;
3379;SDS011;1703;51.964;7.642;2023-03-31T15:46:17;17.87;;;2.70;;
3379;SDS011;1703;51.964;7.642;2023-03-31T15:48:50;6.93;;;2.00;;
3379;SDS011;1703;51.964;7.642;2023-03-31T15:51:21;11.27;;;3.07;;
3379;SDS011;1703;51.964;7.642;2023-03-31T15:53:52;8.83;;;2.07;;
3379;SDS011;1703;51.964;7.642;2023-03-31T15:56:23;5.83;;;3.10;;
3379;SDS011;1703;51.964;7.642;2023-03-31T15:58:55;6.40;;;2.03;;
3379;SDS011;1703;51.964;7.642;2023-03-31T16:01:27;4.97;;;2.10;;
3379;SDS011;1703;51.964;7.642;2023-03-31T16:03:56;11.40;;;2.20;;
3379;SDS011;1703;51.964;7.642;2023-03-31T16:06:30;12.77;;;2.60;;
3379;SDS011;1703;51.964;7.642;2023-03-31T16:09:01;11.10;;;2.63;;
3379;SDS011;1703;51.964;7.642;2023-03-31T16:11:33;10.20;;;2.33;;
3379;SDS011;1703;51.964;7.642;2023-03-31T16:14:05;12.53;;;2.70;;